Time;durP1;ratioP1;P1;durP2;ratioP2;P2;SDS_P1;SDS_P2;PMS_P1;PMS_P2;Temp;Humidity;BMP_temperature;BMP_pressure;BME280_temperature;BME280_humidity;BME280_pressure;Samples;Min_cycle;Max_cycle;Signal;HPM_P1;HPM_P2
2021/09/01 00:01:43;;;;;;;8.68;3.25;;;;;;;;;;5070153;28;20020;-84
2021/09/01 00:04:08;;;;;;;7.05;3.10;;;;;;;;;;5070334;28;20475;-84
2021/09/01 00:06:33;;;;;;;10.30;3.20;;;;;;;;;;5059191;28;20017;-84
2021/09/01 00:08:59;;;;;;;11.68;3.40;;;;;;;;;;5048589;28;20024;-84
2021/09/01 00:11:24;;;;;;;9.43;3.00;;;;;;;;;;5049979;28;20032;-84
2021/09/01 00:13:49;;;;;;;7.13;2.88;;;;;;;;;;5051414;28;20041;-84
2021/09/01 00:16:27;;;;;;;8.00;3.10;;;;;;;;;;5050081;28;20020;-84
2021/09/01 00:18:56;;;;;;;8.07;3.35;;;;;;;;;;5050879;28;20020;-84
2021/09/01 00:21:22;;;;;;;8.23;2.72;;;;;;;;;;5051334;28;20067;-84
2021/09/01 00:23:48;;;;;;;11.70;3.22;;;;;;;;;;5049639;28;20017;-84
2021/09/01 00:26:13;;;;;;;9.32;3.28;;;;;;;;;;5050123;28;20051;-84
2021/09/01 00:28:38;;;;;;;6.57;3.47;;;;;;;;;;5049588;28;20112;-84
2021/09/01 00:31:03;;;;;;;9.18;3.60;;;;;;;;;;5050511;28;20024;-84
2021/09/01 00:33:29;;;;;;;8.60;3.60;;;;;;;;;;5051209;28;20033;-83
2021/09/01 00:35:54;;;;;;;10.18;3.40;;;;;;;;;;5049967;28;20009;-84
2021/09/01 00:38:19;;;;;;;7.22;3.47;;;;;;;;;;5049632;28;20021;-84
2021/09/01 00:40:44;;;;;;;16.75;3.70;;;;;;;;;;5049642;28;20016;-84
2021/09/01 00:43:09;;;;;;;13.80;3.90;;;;;;;;;;5051919;28;20019;-84
2021/09/01 00:45:35;;;;;;;13.15;3.88;;;;;;;;;;5053784;28;20021;-84
2021/09/01 00:48:01;;;;;;;9.50;3.50;;;;;;;;;;5053612;28;20384;-84
2021/09/01 00:50:26;;;;;;;14.82;3.45;;;;;;;;;;5053686;28;20469;-84
2021/09/01 00:52:52;;;;;;;8.80;3.53;;;;;;;;;;5053510;28;20106;-84
2021/09/01 00:55:19;;;;;;;15.68;3.50;;;;;;;;;;5053457;28;20491;-84
2021/09/01 00:57:45;;;;;;;12.85;3.97;;;;;;;;;;5052926;28;20029;-84
2021/09/01 01:00:14;;;;;;;10.20;3.58;;;;;;;;;;5053456;28;20480;-84
2021/09/01 01:02:40;;;;;;;8.02;3.45;;;;;;;;;;5054538;28;20017;-84
2021/09/01 01:05:05;;;;;;;11.02;3.47;;;;;;;;;;5053351;28;20471;-83
2021/09/01 01:07:31;;;;;;;8.35;3.17;;;;;;;;;;5086137;28;20115;-84
2021/09/01 01:09:56;;;;;;;10.77;3.13;;;;;;;;;;5052802;28;20108;-84
2021/09/01 01:12:21;;;;;;;8.65;3.05;;;;;;;;;;5053371;28;20172;-84
2021/09/01 01:14:47;;;;;;;9.60;3.65;;;;;;;;;;5052550;28;20021;-84
2021/09/01 01:17:14;;;;;;;7.82;3.25;;;;;;;;;;5052755;28;20021;-84
2021/09/01 01:19:50;;;;;;;12.13;3.42;;;;;;;;;;5052752;28;20025;-83
2021/09/01 01:22:16;;;;;;;11.43;3.80;;;;;;;;;;5054119;28;20079;-84
2021/09/01 01:24:44;;;;;;;14.45;3.63;;;;;;;;;;5052678;28;20021;-84
2021/09/01 01:27:24;;;;;;;8.50;3.30;;;;;;;;;;5052645;28;20021;-84
2021/09/01 01:29:50;;;;;;;11.27;3.58;;;;;;;;;;5052776;28;20112;-83
2021/09/01 01:32:15;;;;;;;9.27;3.40;;;;;;;;;;5052987;28;20100;-84
2021/09/01 01:34:40;;;;;;;7.50;3.22;;;;;;;;;;5052703;28;20021;-84
2021/09/01 01:37:06;;;;;;;8.02;3.20;;;;;;;;;;5052499;28;20012;-84
2021/09/01 01:39:32;;;;;;;12.40;3.70;;;;;;;;;;5052867;28;20074;-84
2021/09/01 01:41:57;;;;;;;16.17;4.00;;;;;;;;;;5052772;28;20522;-84
2021/09/01 01:44:22;;;;;;;10.05;3.00;;;;;;;;;;5052520;28;20017;-84
2021/09/01 01:46:47;;;;;;;12.40;3.25;;;;;;;;;;5051801;28;20039;-84
2021/09/01 01:49:12;;;;;;;7.88;3.15;;;;;;;;;;5053659;28;20032;-84
2021/09/01 01:51:46;;;;;;;9.52;3.35;;;;;;;;;;5052609;28;20464;-84
2021/09/01 01:54:11;;;;;;;9.20;3.40;;;;;;;;;;5051616;28;20456;-84
2021/09/01 01:56:37;;;;;;;11.95;3.47;;;;;;;;;;5052694;28;20024;-84
2021/09/01 01:59:02;;;;;;;8.02;3.10;;;;;;;;;;5051954;28;20016;-84
2021/09/01 02:01:27;;;;;;;11.27;3.80;;;;;;;;;;5053330;28;20021;-84
2021/09/01 02:03:52;;;;;;;9.48;3.63;;;;;;;;;;5051895;28;20060;-84
2021/09/01 02:06:20;;;;;;;10.18;3.88;;;;;;;;;;5053151;28;20023;-84
2021/09/01 02:08:45;;;;;;;8.52;3.25;;;;;;;;;;5051592;28;20021;-84
2021/09/01 02:11:10;;;;;;;10.55;3.45;;;;;;;;;;5051655;28;20431;-84
2021/09/01 02:13:36;;;;;;;9.35;3.35;;;;;;;;;;5052140;28;20033;-84
2021/09/01 02:16:01;;;;;;;9.48;3.65;;;;;;;;;;5053177;28;20107;-84
2021/09/01 02:18:26;;;;;;;12.20;3.60;;;;;;;;;;5051423;28;20583;-84
2021/09/01 02:20:51;;;;;;;8.20;2.90;;;;;;;;;;5051871;28;20021;-84
2021/09/01 02:23:16;;;;;;;12.30;3.40;;;;;;;;;;5051654;28;20021;-84
2021/09/01 02:25:42;;;;;;;9.95;3.42;;;;;;;;;;5051904;28;20040;-84
2021/09/01 02:28:07;;;;;;;6.70;3.20;;;;;;;;;;5051407;28;20009;-84
2021/09/01 02:30:32;;;;;;;6.45;3.22;;;;;;;;;;5052930;28;20381;-84
2021/09/01 02:32:57;;;;;;;8.48;2.85;;;;;;;;;;5051532;28;20028;-84
2021/09/01 02:35:22;;;;;;;7.88;2.90;;;;;;;;;;5052408;28;20017;-84
2021/09/01 02:37:52;;;;;;;16.10;3.95;;;;;;;;;;5051221;28;20013;-84
2021/09/01 02:40:17;;;;;;;12.02;3.33;;;;;;;;;;5051224;28;20108;-84
2021/09/01 02:42:42;;;;;;;10.27;3.30;;;;;;;;;;5051571;28;20028;-84
2021/09/01 02:45:08;;;;;;;11.10;3.33;;;;;;;;;;5051119;28;20029;-83
2021/09/01 02:47:33;;;;;;;13.98;3.65;;;;;;;;;;5051127;28;20056;-84
2021/09/01 02:49:58;;;;;;;12.23;3.85;;;;;;;;;;5051420;28;20025;-84
2021/09/01 02:52:23;;;;;;;10.38;3.42;;;;;;;;;;5052333;28;20021;-84
2021/09/01 02:54:49;;;;;;;11.77;3.20;;;;;;;;;;5052072;28;20025;-84
2021/09/01 02:57:14;;;;;;;8.20;3.30;;;;;;;;;;5050813;28;20013;-84
2021/09/01 02:59:39;;;;;;;8.95;3.53;;;;;;;;;;5051371;28;20044;-84
2021/09/01 03:02:04;;;;;;;8.93;2.92;;;;;;;;;;5052646;28;20051;-84
2021/09/01 03:04:29;;;;;;;13.30;3.70;;;;;;;;;;5050842;28;20529;-83
2021/09/01 03:06:55;;;;;;;8.73;3.10;;;;;;;;;;5049995;28;20021;-84
2021/09/01 03:09:20;;;;;;;10.45;3.30;;;;;;;;;;5050608;28;20469;-84
2021/09/01 03:11:45;;;;;;;7.00;3.20;;;;;;;;;;5052157;28;20032;-84
2021/09/01 03:14:10;;;;;;;8.38;3.20;;;;;;;;;;5050802;28;20032;-84
2021/09/01 03:16:35;;;;;;;11.38;3.72;;;;;;;;;;5050969;28;20009;-84
2021/09/01 03:19:01;;;;;;;8.50;4.07;;;;;;;;;;5050629;28;20017;-84
2021/09/01 03:21:26;;;;;;;12.52;3.60;;;;;;;;;;5050834;28;20025;-84
2021/09/01 03:23:51;;;;;;;9.05;3.20;;;;;;;;;;5050847;28;20036;-84
2021/09/01 03:26:16;;;;;;;11.25;3.10;;;;;;;;;;5050958;28;20028;-84
2021/09/01 03:28:41;;;;;;;10.20;3.58;;;;;;;;;;5050345;28;20017;-84
2021/09/01 03:31:06;;;;;;;9.02;3.15;;;;;;;;;;5050922;28;20020;-84
2021/09/01 03:33:32;;;;;;;11.10;3.22;;;;;;;;;;5050395;28;20468;-84
2021/09/01 03:35:57;;;;;;;8.93;3.28;;;;;;;;;;5052133;28;20029;-84
2021/09/01 03:38:22;;;;;;;13.20;3.63;;;;;;;;;;5049792;28;20032;-84
2021/09/01 03:40:47;;;;;;;13.90;4.00;;;;;;;;;;5050483;28;20449;-84
2021/09/01 03:43:12;;;;;;;8.27;3.30;;;;;;;;;;5050515;28;20075;-84
2021/09/01 03:45:38;;;;;;;8.90;3.10;;;;;;;;;;5050692;28;20005;-84
2021/09/01 03:48:03;;;;;;;10.77;3.47;;;;;;;;;;5050131;28;20396;-84
2021/09/01 03:50:28;;;;;;;12.73;3.50;;;;;;;;;;5050505;28;20710;-84
2021/09/01 03:52:54;;;;;;;10.75;2.85;;;;;;;;;;5050581;28;20087;-84
2021/09/01 03:55:19;;;;;;;12.52;3.33;;;;;;;;;;5050446;28;20448;-84
2021/09/01 03:57:44;;;;;;;14.82;3.30;;;;;;;;;;5050256;28;20488;-84
2021/09/01 04:00:10;;;;;;;14.10;2.80;;;;;;;;;;5050651;28;20112;-84
2021/09/01 04:02:35;;;;;;;8.50;3.38;;;;;;;;;;5050218;28;20021;-83
2021/09/01 04:05:00;;;;;;;10.68;3.28;;;;;;;;;;5050342;28;20354;-84
2021/09/01 04:07:26;;;;;;;15.07;3.75;;;;;;;;;;5050011;28;20017;-84
2021/09/01 04:09:51;;;;;;;9.93;3.47;;;;;;;;;;5050411;28;20021;-84
2021/09/01 04:12:16;;;;;;;11.02;3.25;;;;;;;;;;5050425;28;20483;-84
2021/09/01 04:14:41;;;;;;;13.15;3.42;;;;;;;;;;5049905;28;20028;-84
2021/09/01 04:17:06;;;;;;;14.88;3.30;;;;;;;;;;5051949;28;20092;-84
2021/09/01 04:19:32;;;;;;;18.00;3.78;;;;;;;;;;5054245;28;20037;-84
2021/09/01 04:21:57;;;;;;;10.15;3.15;;;;;;;;;;5053804;28;20334;-84
2021/09/01 04:24:22;;;;;;;15.98;3.53;;;;;;;;;;5053882;28;20047;-84
2021/09/01 04:26:47;;;;;;;16.48;3.53;;;;;;;;;;5053702;28;20381;-84
2021/09/01 04:29:13;;;;;;;9.88;2.67;;;;;;;;;;5055490;28;20032;-84
2021/09/01 04:31:38;;;;;;;12.82;3.28;;;;;;;;;;5053967;28;20385;-84
2021/09/01 04:34:03;;;;;;;12.30;3.40;;;;;;;;;;5053812;28;20019;-84
2021/09/01 04:36:29;;;;;;;11.07;3.25;;;;;;;;;;5053830;28;20025;-84
2021/09/01 04:38:54;;;;;;;9.90;3.00;;;;;;;;;;5053430;28;20023;-84
2021/09/01 04:41:19;;;;;;;11.70;3.13;;;;;;;;;;5053937;28;20025;-84
2021/09/01 04:43:44;;;;;;;11.98;3.92;;;;;;;;;;5053422;28;20047;-84
2021/09/01 04:46:09;;;;;;;11.77;3.60;;;;;;;;;;5054035;28;20021;-84
2021/09/01 04:48:35;;;;;;;11.98;3.20;;;;;;;;;;5053381;28;20028;-84
2021/09/01 04:51:00;;;;;;;8.63;2.72;;;;;;;;;;5054604;28;20070;-84
2021/09/01 04:53:25;;;;;;;12.68;3.55;;;;;;;;;;5053429;28;20439;-84
2021/09/01 04:55:50;;;;;;;10.27;2.92;;;;;;;;;;5053721;28;20039;-84
2021/09/01 04:58:15;;;;;;;10.27;2.75;;;;;;;;;;5053241;28;20032;-84
2021/09/01 05:00:41;;;;;;;10.60;3.20;;;;;;;;;;5053592;28;20025;-84
2021/09/01 05:03:06;;;;;;;11.55;2.90;;;;;;;;;;5053422;28;20021;-84
2021/09/01 05:05:31;;;;;;;9.57;3.17;;;;;;;;;;5053003;28;20021;-84
2021/09/01 05:07:57;;;;;;;12.65;3.33;;;;;;;;;;5052748;28;20103;-84
2021/09/01 05:10:22;;;;;;;11.38;3.10;;;;;;;;;;5053417;28;20017;-84
2021/09/01 05:12:48;;;;;;;9.27;3.22;;;;;;;;;;5053337;28;20013;-84
2021/09/01 05:15:13;;;;;;;15.07;3.20;;;;;;;;;;5053273;28;20036;-84
2021/09/01 05:17:39;;;;;;;15.95;3.97;;;;;;;;;;5052936;28;20025;-84
2021/09/01 05:20:04;;;;;;;13.18;3.70;;;;;;;;;;5053134;28;20070;-84
2021/09/01 05:22:31;;;;;;;13.43;3.50;;;;;;;;;;5052973;28;20385;-84
2021/09/01 05:25:02;;;;;;;17.30;3.70;;;;;;;;;;5054368;28;20048;-83
2021/09/01 05:27:30;;;;;;;13.97;3.57;;;;;;;;;;5052724;28;20099;-84
2021/09/01 05:29:57;;;;;;;11.35;2.90;;;;;;;;;;5052409;28;20411;-84
2021/09/01 05:32:23;;;;;;;12.93;3.60;;;;;;;;;;5054582;28;20031;-84
2021/09/01 05:34:49;;;;;;;9.50;3.47;;;;;;;;;;5052845;28;20025;-84
2021/09/01 05:37:15;;;;;;;9.80;3.50;;;;;;;;;;5053528;28;20380;-84
2021/09/01 05:39:41;;;;;;;10.00;3.95;;;;;;;;;;5052825;28;20020;-84
2021/09/01 05:42:07;;;;;;;10.38;3.72;;;;;;;;;;5052675;28;20017;-84
2021/09/01 05:44:32;;;;;;;6.53;2.95;;;;;;;;;;5052931;28;20500;-84
2021/09/01 05:46:58;;;;;;;9.45;2.88;;;;;;;;;;5052337;28;20052;-84
2021/09/01 05:49:23;;;;;;;7.60;2.88;;;;;;;;;;5052520;28;20125;-84
2021/09/01 05:51:48;;;;;;;8.73;3.28;;;;;;;;;;5052409;28;20045;-84
2021/09/01 05:54:13;;;;;;;11.73;3.22;;;;;;;;;;5053387;28;20349;-84
2021/09/01 05:56:42;;;;;;;13.55;3.42;;;;;;;;;;5051911;28;20624;-84
2021/09/01 05:59:10;;;;;;;9.77;3.30;;;;;;;;;;5052296;28;20016;-84
2021/09/01 06:01:42;;;;;;;11.60;3.67;;;;;;;;;;5052533;28;20021;-84
2021/09/01 06:04:09;;;;;;;16.77;3.35;;;;;;;;;;5053738;28;20024;-84
2021/09/01 06:06:36;;;;;;;13.13;3.20;;;;;;;;;;5052290;28;20385;-84
2021/09/01 06:09:01;;;;;;;13.27;3.67;;;;;;;;;;5052229;28;20108;-84
2021/09/01 06:11:27;;;;;;;12.10;3.45;;;;;;;;;;5052035;28;20163;-84
2021/09/01 06:13:52;;;;;;;10.57;3.60;;;;;;;;;;5051805;28;20070;-84
2021/09/01 06:16:17;;;;;;;15.98;3.50;;;;;;;;;;5051551;28;20013;-81
2021/09/01 06:18:43;;;;;;;8.88;3.15;;;;;;;;;;5051590;28;20024;-82
2021/09/01 06:21:08;;;;;;;8.82;3.05;;;;;;;;;;5051516;28;20416;-82
2021/09/01 06:23:33;;;;;;;9.35;3.13;;;;;;;;;;5049205;28;20025;-82
2021/09/01 06:25:59;;;;;;;13.70;3.72;;;;;;;;;;5046915;28;20111;-82
2021/09/01 06:28:24;;;;;;;13.35;4.13;;;;;;;;;;5052204;28;20027;-82
2021/09/01 06:30:49;;;;;;;13.10;4.03;;;;;;;;;;5052906;28;20024;-82
2021/09/01 06:33:14;;;;;;;12.90;3.40;;;;;;;;;;5052427;28;20431;-82
2021/09/01 06:35:40;;;;;;;13.73;3.63;;;;;;;;;;5055614;28;20028;-81
2021/09/01 06:38:07;;;;;;;13.52;3.78;;;;;;;;;;5056534;28;20021;-82
2021/09/01 06:40:33;;;;;;;10.55;3.83;;;;;;;;;;5051171;28;20457;-82
2021/09/01 06:42:58;;;;;;;9.93;3.72;;;;;;;;;;5051642;28;20032;-81
2021/09/01 06:45:24;;;;;;;10.75;3.88;;;;;;;;;;5075036;28;20090;-82
2021/09/01 06:47:50;;;;;;;12.77;4.20;;;;;;;;;;5053113;28;20110;-82
2021/09/01 06:50:16;;;;;;;9.38;3.42;;;;;;;;;;5051179;28;20159;-81
2021/09/01 06:52:43;;;;;;;11.88;4.07;;;;;;;;;;5053468;28;20032;-82
2021/09/01 06:55:08;;;;;;;10.77;4.07;;;;;;;;;;5051325;28;20111;-82
2021/09/01 06:57:34;;;;;;;12.52;4.05;;;;;;;;;;5048633;28;20116;-83
2021/09/01 06:59:59;;;;;;;11.38;4.22;;;;;;;;;;5051603;28;20424;-84
2021/09/01 07:02:24;;;;;;;9.90;3.58;;;;;;;;;;5052896;28;20032;-84
2021/09/01 07:04:50;;;;;;;11.48;3.50;;;;;;;;;;5051502;28;20021;-83
2021/09/01 07:07:15;;;;;;;12.65;3.63;;;;;;;;;;5051395;28;20120;-83
2021/09/01 07:09:40;;;;;;;14.63;4.35;;;;;;;;;;5051694;28;20012;-84
2021/09/01 07:12:05;;;;;;;17.55;4.20;;;;;;;;;;5052178;28;20017;-84
2021/09/01 07:14:30;;;;;;;11.68;4.20;;;;;;;;;;5051652;28;20037;-84
2021/09/01 07:16:56;;;;;;;14.90;4.28;;;;;;;;;;5052110;28;20014;-84
2021/09/01 07:19:21;;;;;;;7.97;3.45;;;;;;;;;;5051917;28;20017;-84
2021/09/01 07:21:46;;;;;;;14.32;4.05;;;;;;;;;;5051515;28;20488;-84
2021/09/01 07:24:11;;;;;;;13.25;3.75;;;;;;;;;;5050893;28;20025;-84
2021/09/01 07:26:36;;;;;;;14.88;3.90;;;;;;;;;;5050388;28;20056;-84
2021/09/01 07:29:02;;;;;;;12.65;3.67;;;;;;;;;;5052903;28;20427;-84
2021/09/01 07:31:30;;;;;;;14.77;4.18;;;;;;;;;;5051042;28;20808;-84
2021/09/01 07:33:56;;;;;;;10.75;4.32;;;;;;;;;;5071311;28;20017;-84
2021/09/01 07:36:21;;;;;;;13.52;3.47;;;;;;;;;;5051793;28;20067;-85
2021/09/01 07:38:46;;;;;;;18.63;4.28;;;;;;;;;;5051575;28;20464;-84
2021/09/01 07:41:11;;;;;;;16.38;4.13;;;;;;;;;;5052434;28;20021;-85
2021/09/01 07:43:36;;;;;;;11.30;3.47;;;;;;;;;;5051513;28;20876;-85
2021/09/01 07:46:02;;;;;;;19.00;4.53;;;;;;;;;;5050855;28;20443;-85
2021/09/01 07:48:27;;;;;;;15.40;4.00;;;;;;;;;;5051384;28;20029;-85
2021/09/01 07:50:52;;;;;;;13.07;3.72;;;;;;;;;;5050880;28;20013;-85
2021/09/01 07:53:18;;;;;;;12.20;4.25;;;;;;;;;;5050151;28;20533;-85
2021/09/01 07:55:43;;;;;;;15.13;3.63;;;;;;;;;;5050097;28;20017;-85
2021/09/01 07:58:08;;;;;;;10.77;3.35;;;;;;;;;;5049929;28;20009;-85
2021/09/01 08:00:34;;;;;;;10.15;3.67;;;;;;;;;;5051449;28;20079;-85
2021/09/01 08:02:59;;;;;;;11.32;3.65;;;;;;;;;;5050136;28;20478;-85
2021/09/01 08:05:24;;;;;;;10.15;3.72;;;;;;;;;;5050249;28;20103;-85
2021/09/01 08:07:49;;;;;;;15.05;4.32;;;;;;;;;;5050840;28;20063;-85
2021/09/01 08:10:15;;;;;;;17.15;4.53;;;;;;;;;;5050228;28;20083;-85
2021/09/01 08:12:40;;;;;;;21.83;3.90;;;;;;;;;;5051138;28;20548;-85
2021/09/01 08:15:07;;;;;;;18.27;4.75;;;;;;;;;;5050296;28;20101;-85
2021/09/01 08:17:32;;;;;;;10.30;3.85;;;;;;;;;;5049907;28;20074;-85
2021/09/01 08:19:57;;;;;;;15.57;4.40;;;;;;;;;;5049850;28;20510;-85
2021/09/01 08:22:22;;;;;;;13.52;4.15;;;;;;;;;;5049987;28;20048;-85
2021/09/01 08:24:48;;;;;;;15.95;4.35;;;;;;;;;;5051169;28;20021;-85
2021/09/01 08:27:13;;;;;;;16.13;4.45;;;;;;;;;;5049463;28;20107;-85
2021/09/01 08:29:39;;;;;;;20.20;5.03;;;;;;;;;;5050367;28;20025;-85
2021/09/01 08:32:04;;;;;;;13.23;4.38;;;;;;;;;;5050394;28;20472;-85
2021/09/01 08:34:30;;;;;;;15.30;3.67;;;;;;;;;;5050110;28;20024;-85
2021/09/01 08:36:56;;;;;;;11.02;4.40;;;;;;;;;;5049672;28;20009;-85
2021/09/01 08:39:21;;;;;;;17.83;4.38;;;;;;;;;;5050181;28;20040;-85
2021/09/01 08:41:46;;;;;;;19.60;4.75;;;;;;;;;;5049550;28;20381;-85
2021/09/01 08:44:12;;;;;;;23.85;5.05;;;;;;;;;;5051424;28;20025;-85
2021/09/01 08:46:38;;;;;;;17.77;3.92;;;;;;;;;;5051282;28;20027;-85
2021/09/01 08:49:04;;;;;;;14.07;4.75;;;;;;;;;;5049896;28;20033;-85
2021/09/01 08:51:29;;;;;;;16.13;5.28;;;;;;;;;;5050001;28;20025;-85
2021/09/01 08:53:56;;;;;;;14.20;4.65;;;;;;;;;;5049604;28;20410;-85
2021/09/01 08:56:21;;;;;;;18.70;5.25;;;;;;;;;;5050866;28;20097;-85
2021/09/01 08:58:46;;;;;;;14.05;4.45;;;;;;;;;;5049768;28;20199;-85
2021/09/01 09:01:38;;;;;;;19.10;5.10;;;;;;;;;;5049889;28;20044;-85
2021/09/01 09:04:03;;;;;;;15.87;4.37;;;;;;;;;;5050329;28;20037;-85
2021/09/01 09:06:42;;;;;;;13.10;4.57;;;;;;;;;;5053043;28;20258;-85
2021/09/01 09:09:13;;;;;;;13.20;4.72;;;;;;;;;;5052806;28;20021;-85
2021/09/01 09:11:39;;;;;;;11.40;4.18;;;;;;;;;;5053590;28;20017;-85
2021/09/01 09:14:16;;;;;;;18.23;4.95;;;;;;;;;;5053374;28;20075;-85
2021/09/01 09:16:42;;;;;;;16.77;4.60;;;;;;;;;;5052741;28;20419;-85
2021/09/01 09:19:07;;;;;;;14.85;4.28;;;;;;;;;;5053203;28;20108;-85
2021/09/01 09:21:34;;;;;;;13.45;4.32;;;;;;;;;;5052440;28;20120;-85
2021/09/01 09:24:06;;;;;;;10.60;3.40;;;;;;;;;;5052834;28;20025;-85
2021/09/01 09:26:33;;;;;;;10.05;3.63;;;;;;;;;;5053526;28;20461;-85
2021/09/01 09:29:08;;;;;;;14.63;3.95;;;;;;;;;;5052838;28;20033;-86
2021/09/01 09:31:33;;;;;;;16.60;4.03;;;;;;;;;;5052892;28;20028;-85
2021/09/01 09:34:12;;;;;;;14.02;3.85;;;;;;;;;;5052763;28;20039;-86
2021/09/01 09:36:37;;;;;;;9.77;3.72;;;;;;;;;;5052593;28;20013;-86
2021/09/01 09:39:03;;;;;;;18.10;3.95;;;;;;;;;;5053093;28;20009;-86
2021/09/01 09:41:29;;;;;;;11.25;3.60;;;;;;;;;;5052776;28;20503;-85
2021/09/01 09:44:03;;;;;;;9.98;4.05;;;;;;;;;;5052610;28;20044;-85
2021/09/01 09:46:28;;;;;;;13.20;3.92;;;;;;;;;;5052216;28;20031;-85
2021/09/01 09:49:03;;;;;;;20.88;4.45;;;;;;;;;;5053434;28;20025;-85
2021/09/01 09:51:38;;;;;;;10.38;3.60;;;;;;;;;;5052317;28;20427;-85
2021/09/01 09:54:17;;;;;;;10.93;3.10;;;;;;;;;;5053670;28;20024;-85
2021/09/01 09:56:42;;;;;;;12.07;3.83;;;;;;;;;;5052357;28;20021;-85
2021/09/01 09:59:12;;;;;;;12.20;4.03;;;;;;;;;;5053496;28;20015;-86
2021/09/01 10:01:37;;;;;;;12.55;3.28;;;;;;;;;;5053932;28;20017;-86
2021/09/01 10:04:03;;;;;;;8.52;3.33;;;;;;;;;;5053512;28;20017;-85
2021/09/01 10:06:28;;;;;;;11.40;3.30;;;;;;;;;;5052494;28;20028;-85
2021/09/01 10:08:53;;;;;;;9.07;3.20;;;;;;;;;;5053403;28;20025;-85
2021/09/01 10:11:20;;;;;;;12.68;3.03;;;;;;;;;;5052133;28;20017;-86
2021/09/01 10:13:47;;;;;;;12.73;3.55;;;;;;;;;;5051938;28;20032;-86
2021/09/01 10:16:12;;;;;;;8.98;2.95;;;;;;;;;;5051233;28;20017;-86
2021/09/01 10:18:37;;;;;;;7.88;2.83;;;;;;;;;;5053250;28;20475;-85
2021/09/01 10:21:04;;;;;;;9.60;3.10;;;;;;;;;;5053438;28;20028;-85
2021/09/01 10:23:40;;;;;;;12.52;2.78;;;;;;;;;;5051525;28;20032;-85
2021/09/01 10:26:22;;;;;;;10.55;3.10;;;;;;;;;;5051655;28;20021;-86
2021/09/01 10:28:47;;;;;;;13.25;3.50;;;;;;;;;;5051385;28;20108;-85
2021/09/01 10:31:15;;;;;;;10.10;3.47;;;;;;;;;;5053264;28;20063;-86
2021/09/01 10:33:46;;;;;;;8.52;3.13;;;;;;;;;;5052663;28;20473;-86
2021/09/01 10:36:23;;;;;;;7.55;2.92;;;;;;;;;;5052743;28;20024;-86
2021/09/01 10:39:08;;;;;;;8.05;3.10;;;;;;;;;;5051151;28;20017;-84
2021/09/01 10:41:35;;;;;;;11.30;3.42;;;;;;;;;;5053338;28;20024;-85
2021/09/01 10:44:19;;;;;;;7.15;2.88;;;;;;;;;;5052768;28;20024;-84
2021/09/01 10:46:50;;;;;;;8.52;3.00;;;;;;;;;;5052205;28;20035;-85
2021/09/01 10:49:16;;;;;;;8.38;3.08;;;;;;;;;;5050591;28;20033;-86
2021/09/01 10:51:46;;;;;;;6.38;2.90;;;;;;;;;;5052940;28;20027;-86
2021/09/01 10:54:27;;;;;;;11.35;3.30;;;;;;;;;;5052755;28;20034;-86
2021/09/01 10:56:52;;;;;;;10.60;3.55;;;;;;;;;;5049888;28;20419;-86
2021/09/01 10:59:25;;;;;;;11.43;3.50;;;;;;;;;;5051584;28;20021;-86
2021/09/01 11:02:16;;;;;;;12.77;3.53;;;;;;;;;;5080617;28;20058;-86
2021/09/01 11:04:52;;;;;;;11.73;3.30;;;;;;;;;;5068507;28;20033;-86
2021/09/01 11:07:25;;;;;;;13.52;3.67;;;;;;;;;;5084750;28;20175;-86
2021/09/01 11:09:59;;;;;;;9.02;3.90;;;;;;;;;;5052013;28;20392;-86
2021/09/01 11:12:25;;;;;;;15.75;4.68;;;;;;;;;;5051581;28;20025;-86
2021/09/01 11:14:52;;;;;;;15.85;4.20;;;;;;;;;;5052306;28;20029;-87
2021/09/01 11:17:21;;;;;;;9.10;3.55;;;;;;;;;;5050978;28;20108;-86
2021/09/01 11:19:48;;;;;;;14.07;4.28;;;;;;;;;;5052077;28;20074;-87
2021/09/01 11:22:15;;;;;;;9.93;3.72;;;;;;;;;;5053077;28;20439;-86
2021/09/01 11:24:59;;;;;;;16.75;3.85;;;;;;;;;;5085255;28;20032;-86
2021/09/01 11:27:25;;;;;;;11.93;3.97;;;;;;;;;;5050676;28;20706;-86
2021/09/01 11:29:50;;;;;;;17.08;4.40;;;;;;;;;;5051911;28;20073;-85
2021/09/01 11:32:19;;;;;;;12.02;4.03;;;;;;;;;;5051824;28;20028;-86
2021/09/01 11:34:45;;;;;;;17.17;3.67;;;;;;;;;;5051274;28;20025;-86
2021/09/01 11:37:11;;;;;;;10.85;3.67;;;;;;;;;;5052063;28;20017;-86
2021/09/01 11:39:40;;;;;;;16.67;4.10;;;;;;;;;;5085236;28;20024;-86
2021/09/01 11:42:05;;;;;;;12.27;4.15;;;;;;;;;;5084722;28;20396;-86
2021/09/01 11:44:30;;;;;;;9.38;3.60;;;;;;;;;;5052045;28;20029;-86
2021/09/01 11:46:56;;;;;;;11.05;3.08;;;;;;;;;;5052165;28;20016;-86
2021/09/01 11:49:21;;;;;;;11.02;3.45;;;;;;;;;;5052058;28;20025;-86
2021/09/01 11:51:47;;;;;;;9.80;3.15;;;;;;;;;;5051716;28;20040;-86
2021/09/01 11:54:13;;;;;;;10.85;3.33;;;;;;;;;;5051166;28;20028;-86
2021/09/01 11:56:38;;;;;;;10.23;3.22;;;;;;;;;;5050723;28;20017;-86
2021/09/01 11:59:11;;;;;;;8.85;3.13;;;;;;;;;;5049789;28;20020;-86
2021/09/01 12:01:42;;;;;;;12.20;2.97;;;;;;;;;;5051059;28;20384;-86
2021/09/01 12:04:07;;;;;;;7.75;2.60;;;;;;;;;;5051591;28;20488;-86
2021/09/01 12:06:34;;;;;;;7.85;2.85;;;;;;;;;;5050687;28;20029;-86
2021/09/01 12:08:59;;;;;;;9.23;3.00;;;;;;;;;;5048851;28;20032;-86
2021/09/01 12:11:24;;;;;;;8.43;3.22;;;;;;;;;;5049642;28;20033;-86
2021/09/01 12:13:51;;;;;;;8.45;2.72;;;;;;;;;;5084665;28;20369;-86
2021/09/01 12:16:24;;;;;;;13.10;3.38;;;;;;;;;;5084941;28;20116;-86
2021/09/01 12:18:55;;;;;;;11.38;4.03;;;;;;;;;;5051082;28;20021;-86
2021/09/01 12:21:21;;;;;;;15.55;3.70;;;;;;;;;;5084925;28;20032;-85
2021/09/01 12:24:06;;;;;;;6.53;3.00;;;;;;;;;;5050641;28;20021;-86
2021/09/01 12:26:31;;;;;;;11.00;3.58;;;;;;;;;;5050433;28;20479;-85
2021/09/01 12:28:56;;;;;;;10.45;3.50;;;;;;;;;;5050758;28;20104;-86
2021/09/01 12:31:22;;;;;;;14.77;3.13;;;;;;;;;;5050789;28;20029;-86
2021/09/01 12:33:47;;;;;;;12.25;2.78;;;;;;;;;;5050398;28;20484;-86
2021/09/01 12:36:22;;;;;;;14.93;3.42;;;;;;;;;;5050860;28;20028;-86
2021/09/01 12:38:50;;;;;;;9.70;2.97;;;;;;;;;;5052578;28;20017;-86
2021/09/01 12:41:19;;;;;;;11.02;3.50;;;;;;;;;;5054814;28;20357;-86
2021/09/01 12:43:44;;;;;;;9.82;3.30;;;;;;;;;;5054854;28;20083;-86
2021/09/01 12:46:10;;;;;;;10.52;3.83;;;;;;;;;;5053902;28;20033;-86
2021/09/01 12:48:40;;;;;;;11.60;2.83;;;;;;;;;;5055795;28;20491;-86
2021/09/01 12:51:07;;;;;;;10.63;3.85;;;;;;;;;;5054508;28;20021;-86
2021/09/01 12:53:33;;;;;;;8.18;2.92;;;;;;;;;;5054380;28;20029;-86
2021/09/01 12:55:59;;;;;;;12.90;3.17;;;;;;;;;;5054963;28;20016;-86
2021/09/01 12:58:24;;;;;;;9.80;3.30;;;;;;;;;;5054736;28;20472;-85
2021/09/01 13:00:49;;;;;;;14.93;3.40;;;;;;;;;;5053636;28;20017;-86
2021/09/01 13:03:15;;;;;;;9.07;3.03;;;;;;;;;;5053995;28;20021;-86
2021/09/01 13:05:40;;;;;;;9.63;3.30;;;;;;;;;;5053647;28;20029;-86
2021/09/01 13:08:05;;;;;;;7.78;3.08;;;;;;;;;;5054153;28;20400;-86
2021/09/01 13:10:33;;;;;;;10.38;3.50;;;;;;;;;;5054184;28;20435;-86
2021/09/01 13:12:58;;;;;;;12.73;3.60;;;;;;;;;;5053946;28;20044;-86
2021/09/01 13:15:24;;;;;;;10.23;3.72;;;;;;;;;;5054142;28;20926;-86
2021/09/01 13:17:49;;;;;;;11.02;3.40;;;;;;;;;;5054142;28;20017;-86
2021/09/01 13:20:15;;;;;;;14.80;3.35;;;;;;;;;;5055444;28;20423;-86
2021/09/01 13:22:41;;;;;;;9.05;3.10;;;;;;;;;;5054226;28;20445;-86
2021/09/01 13:25:07;;;;;;;11.50;3.30;;;;;;;;;;5054115;28;20047;-86
2021/09/01 13:27:33;;;;;;;9.95;2.78;;;;;;;;;;5055076;28;20029;-86
2021/09/01 13:29:58;;;;;;;8.75;3.10;;;;;;;;;;5053896;28;20024;-85
2021/09/01 13:32:24;;;;;;;10.05;2.95;;;;;;;;;;5053640;28;20029;-86
2021/09/01 13:34:50;;;;;;;11.82;3.10;;;;;;;;;;5053915;28;20464;-86
2021/09/01 13:37:15;;;;;;;13.35;3.72;;;;;;;;;;5054602;28;20013;-86
2021/09/01 13:39:40;;;;;;;10.77;2.55;;;;;;;;;;5053814;28;20086;-85
2021/09/01 13:42:05;;;;;;;7.95;2.92;;;;;;;;;;5053087;28;20021;-86
2021/09/01 13:44:34;;;;;;;14.10;3.25;;;;;;;;;;5053497;28;20411;-86
2021/09/01 13:46:59;;;;;;;10.50;2.80;;;;;;;;;;5054755;28;20028;-86
2021/09/01 13:49:24;;;;;;;9.93;3.33;;;;;;;;;;5053075;28;20029;-86
2021/09/01 13:51:50;;;;;;;10.70;3.35;;;;;;;;;;5082134;28;20032;-86
2021/09/01 13:54:15;;;;;;;10.27;2.90;;;;;;;;;;5052687;28;20048;-85
2021/09/01 13:56:40;;;;;;;9.75;2.50;;;;;;;;;;5053132;28;20021;-84
2021/09/01 13:59:06;;;;;;;11.18;2.78;;;;;;;;;;5054332;28;20103;-84
2021/09/01 14:01:31;;;;;;;13.82;2.83;;;;;;;;;;5053429;28;20024;-84
2021/09/01 14:03:57;;;;;;;10.90;3.38;;;;;;;;;;5052995;28;20025;-84
2021/09/01 14:06:22;;;;;;;5.93;2.55;;;;;;;;;;5052817;28;20024;-84
2021/09/01 14:08:48;;;;;;;7.35;2.60;;;;;;;;;;5053304;28;20033;-84
2021/09/01 14:11:13;;;;;;;5.68;2.83;;;;;;;;;;5053329;28;20035;-84
2021/09/01 14:13:40;;;;;;;11.85;3.10;;;;;;;;;;5052732;28;20392;-85
2021/09/01 14:16:05;;;;;;;12.02;3.05;;;;;;;;;;5083994;28;20522;-84
2021/09/01 14:18:30;;;;;;;11.38;3.50;;;;;;;;;;5054396;28;20025;-85
2021/09/01 14:20:56;;;;;;;11.48;3.03;;;;;;;;;;5053100;28;20029;-84
2021/09/01 14:23:21;;;;;;;10.48;3.33;;;;;;;;;;5052859;28;20412;-84
2021/09/01 14:25:46;;;;;;;11.00;2.67;;;;;;;;;;5052509;28;20080;-85
2021/09/01 14:28:11;;;;;;;7.57;2.88;;;;;;;;;;5052517;28;20033;-84
2021/09/01 14:30:37;;;;;;;10.73;3.00;;;;;;;;;;5051577;28;20033;-85